Flight Track Log - Related Links

Times and Time Zones

All times are in EDT time to prevent confusion due to time zone crossing. See the SWA2852 flight status page for this flight to view local times or setup timezone preferences in your user account.

Time Position Orientation Groundspeed Altitude Reporting Facility
EDT Latitude Longitude Course Direction KTS MPH feet Rate Location/Type
Thu 12:12:43 AM 33.4333 -112.0333 273° West 154 177 2,600  Level Phoenix TRACON
Thu 12:13:04 AM 33.4208 -112.0511 230° Southwest 155 178 3,200 2,122 Climbing Albuquerque Center
Thu 12:14:05 AM 33.4003 -112.1222 251° West 230 265 5,500 3,000 Climbing Albuquerque Center
Thu 12:15:06 AM 33.4072 -112.2094 275° West 264 304 9,300 3,246 Climbing Albuquerque Center
Thu 12:16:07 AM 33.4150 -112.3133 275° West 327 376 12,100 3,393 Climbing Albuquerque Center
Thu 12:17:08 AM 33.4244 -112.4333 275° West 363 418 16,200 4,082 Climbing Albuquerque Center
Thu 12:18:00 AM 33.4430 -112.6197 273° West  Level FlightAware Approximate
Thu 12:18:09 AM 33.4325 -112.5511 275° West 355 409 20,400  Level Albuquerque Center
Thu 12:19:10 AM 33.4408 -112.6650 275° West 351 404 23,000 2,244 Climbing Albuquerque Center
Thu 12:20:12 AM 33.4508 -112.7875 276° West 365 420 25,000 2,293 Climbing Albuquerque Center
Thu 12:21:13 AM 33.4694 -112.9103 280° West 375 432 27,700 2,459 Climbing Albuquerque Center
Thu 12:22:14 AM 33.4906 -113.0194 283° West 351 404 30,000 1,131 Climbing Albuquerque Center
Thu 12:23:15 AM 33.5169 -113.1558 283° West 350 403 30,000  Level Albuquerque Center
Thu 12:24:16 AM 33.5394 -113.2758 283° West 364 419 30,000  Level Albuquerque Center
Thu 12:25:17 AM 33.5617 -113.3958 283° West 368 423 30,000  Level Albuquerque Center
Thu 12:26:18 AM 33.5844 -113.5133 283° West 366 421 30,000  Level Albuquerque Center
Thu 12:27:19 AM 33.6064 -113.6308 283° West 363 418 30,000  Level Albuquerque Center
Thu 12:28:20 AM 33.6294 -113.7553 283° West 362 417 30,000  Level Albuquerque Center
Thu 12:29:21 AM 33.6519 -113.8736 283° West 363 418 30,000  Level Albuquerque Center
Thu 12:30:22 AM 33.6706 -113.9939 281° West 366 421 30,000  Level Albuquerque Center
Thu 12:31:23 AM 33.6803 -114.1172 275° West 369 425 30,000  Level Albuquerque Center
Thu 12:32:24 AM 33.6914 -114.2317 277° West 372 428 30,000 -50 Level Albuquerque Center
Thu 12:33:24 AM 33.7031 -114.3575 276° West 377 434 29,900  Descending Albuquerque Center
Thu 12:34:25 AM 33.7167 -114.5114 276° West 386 444 30,000 48 Climbing Albuquerque Center
Thu 12:35:28 AM 33.7264 -114.6300 276° West 394 453 30,000  Level Los Angeles Center
Thu 12:36:29 AM 33.7383 -114.7617 276° West 398 458 30,000  Level Los Angeles Center
Thu 12:37:30 AM 33.7511 -114.9181 276° West 395 455 30,000  Level Los Angeles Center
Thu 12:38:31 AM 33.7619 -115.0486 276° West 395 455 30,000  Level Los Angeles Center
Thu 12:39:33 AM 33.7733 -115.1828 276° West 400 460 30,000  Level Los Angeles Center
Thu 12:40:34 AM 33.7847 -115.3186 276° West 407 468 30,000  Level Los Angeles Center
Thu 12:41:35 AM 33.7961 -115.4558 276° West 413 475 30,000  Level Los Angeles Center
Thu 12:42:37 AM 33.8069 -115.5944 275° West 417 480 30,000  Level Los Angeles Center
Thu 12:43:38 AM 33.8169 -115.7336 275° West 419 482 30,000  Level Los Angeles Center
Thu 12:44:39 AM 33.8281 -115.8725 276° West 420 483 30,000  Level Los Angeles Center
Thu 12:45:41 AM 33.8417 -116.0425 276° West 426 490 30,000 -146 Level Los Angeles Center
Thu 12:46:42 AM 33.8519 -116.1833 275° West 426 490 29,700 -1,918 Descending Los Angeles Center
Thu 12:47:43 AM 33.8619 -116.3214 275° West 420 483 26,100 -3,295 Descending Los Angeles Center
Thu 12:48:44 AM 33.8714 -116.4581 275° West 412 474 23,000 -2,976 Descending Los Angeles Center
Thu 12:49:46 AM 33.8769 -116.5872 273° West 392 451 20,000 -2,000 Descending Los Angeles Center
Thu 12:50:47 AM 33.8828 -116.7100 273° West 374 430 18,900 -2,213 Descending Los Angeles Center
Thu 12:51:48 AM 33.8886 -116.8261 273° West 354 407 15,500 -2,459 Descending Los Angeles Center
Thu 12:52:49 AM 33.8614 -116.9411 254° West 361 415 13,900 -1,220 Descending Los Angeles Center
Thu 12:53:51 AM 33.8447 -117.0650 261° West 332 382 13,000 -1,659 Descending Los Angeles Center
Thu 12:54:52 AM 33.8317 -117.1764 262° West 335 386 10,500 -1,525 Descending Los Angeles Center
Thu 12:55:53 AM 33.8181 -117.2844 261° West 329 379 9,900 -1,180 Descending Los Angeles Center
Thu 12:56:54 AM 33.8061 -117.3847 262° West 309 356 8,100 -984 Descending Los Angeles Center
Thu 12:57:55 AM 33.7947 -117.4800 262° West 294 338 7,900 -98 Descending Los Angeles Center
Thu 12:58:57 AM 33.7825 -117.5728 261° West 284 327 7,900 -194 Level Los Angeles Center
Thu 12:59:28 AM 33.8000 -117.6333 289° West 261 300 7,600 -767 Descending Southern California TRACON
Thu 01:00:23 AM 33.8167 -117.7000 287° West 234 269 6,800 -1,200 Descending Southern California TRACON
Thu 01:01:23 AM 33.8167 -117.7667 270° West 216 249 5,300 -1,300 Descending Southern California TRACON
Thu 01:02:23 AM 33.7833 -117.8000 220° Southwest 166 191 4,200 -1,450 Descending Southern California TRACON
Thu 01:03:23 AM 33.7500 -117.8333 220° Southwest 154 177 2,400 -1,700 Descending Southern California TRACON
Thu 01:04:23 AM 33.7000 -117.8500 195° South 146 168 800 -852 Descending Southern California TRACON
Thu 01:06:05 AM 33.6553 -117.8806 210° Southwest 144 166 100 -412 Descending Los Angeles Center

Login

Don't have an account? Register now (free) for customized features, flight alerts, and more!